createdAt,value
2022-12-29T00:02:24.346Z,9.70
2022-12-29T00:04:57.636Z,9.70
2022-12-29T00:07:30.607Z,9.70
2022-12-29T00:10:04.287Z,9.70
2022-12-29T00:13:12.249Z,9.70
2022-12-29T00:15:45.188Z,9.70
2022-12-29T00:18:17.897Z,9.70
2022-12-29T00:21:09.332Z,9.70
2022-12-29T00:24:00.689Z,9.80
2022-12-29T00:26:52.652Z,9.80
2022-12-29T00:29:44.061Z,9.80
2022-12-29T00:32:35.684Z,9.70
2022-12-29T00:35:10.575Z,9.70
2022-12-29T00:38:07.732Z,9.80
2022-12-29T00:40:59.869Z,9.80
2022-12-29T00:43:51.407Z,9.80
2022-12-29T00:46:24.359Z,9.80
2022-12-29T00:49:16.675Z,9.90
2022-12-29T00:51:51.632Z,9.90
2022-12-29T00:54:24.457Z,9.90
2022-12-29T00:56:57.380Z,9.80
2022-12-29T00:59:30.101Z,9.80
2022-12-29T01:02:03.557Z,9.80
2022-12-29T01:04:36.751Z,9.80
2022-12-29T01:07:09.550Z,9.80
2022-12-29T01:10:02.118Z,9.80
2022-12-29T01:12:41.326Z,9.80
2022-12-29T01:15:16.584Z,9.80
2022-12-29T01:17:49.307Z,9.80
2022-12-29T01:20:22.093Z,9.80
2022-12-29T01:22:55.061Z,9.80
2022-12-29T01:25:27.773Z,9.70
2022-12-29T01:28:00.516Z,9.70
2022-12-29T01:30:33.925Z,9.70
2022-12-29T01:33:06.701Z,9.70
2022-12-29T01:35:40.526Z,9.70
2022-12-29T01:38:13.464Z,9.70
2022-12-29T01:40:47.245Z,9.70
2022-12-29T01:43:20.361Z,9.70
2022-12-29T01:45:55.058Z,9.70
2022-12-29T01:48:27.864Z,9.70
2022-12-29T01:51:00.682Z,9.70
2022-12-29T01:53:36.614Z,9.70
2022-12-29T01:56:12.938Z,9.60
2022-12-29T01:58:49.773Z,9.60
2022-12-29T02:01:22.956Z,9.60
2022-12-29T02:03:55.977Z,9.70
2022-12-29T02:06:37.762Z,9.70
2022-12-29T02:09:10.620Z,9.70
2022-12-29T02:11:43.485Z,9.70
2022-12-29T02:14:16.456Z,9.70
2022-12-29T02:17:15.118Z,9.70
2022-12-29T02:20:18.202Z,9.80
2022-12-29T02:23:28.599Z,9.80
2022-12-29T02:26:20.071Z,9.80
2022-12-29T02:29:15.143Z,9.80
2022-12-29T02:31:52.510Z,9.80
2022-12-29T02:34:48.847Z,9.80
2022-12-29T02:37:35.395Z,9.90
2022-12-29T02:40:38.167Z,9.90
2022-12-29T02:43:36.465Z,9.90
2022-12-29T02:46:32.209Z,9.90
2022-12-29T02:49:15.002Z,9.90
2022-12-29T02:51:54.000Z,10.00
2022-12-29T02:54:42.204Z,10.00
2022-12-29T02:57:21.925Z,10.10
2022-12-29T03:00:00.857Z,10.10
2022-12-29T03:02:58.897Z,10.10
2022-12-29T03:05:56.345Z,10.20
2022-12-29T03:08:50.691Z,10.20
2022-12-29T03:11:50.561Z,10.20
2022-12-29T03:14:51.955Z,10.20
2022-12-29T03:17:35.977Z,10.20
2022-12-29T03:20:11.160Z,10.20
2022-12-29T03:22:50.206Z,10.20
2022-12-29T03:25:32.400Z,10.20
2022-12-29T03:28:14.729Z,10.30
2022-12-29T03:30:50.901Z,10.30
2022-12-29T03:33:29.494Z,10.30
2022-12-29T03:36:08.517Z,10.30
2022-12-29T03:38:48.360Z,10.30
2022-12-29T03:41:26.864Z,10.30
2022-12-29T03:43:59.827Z,10.30
2022-12-29T03:46:32.610Z,10.30
2022-12-29T03:49:06.484Z,10.30
2022-12-29T03:51:39.217Z,10.30
2022-12-29T03:54:12.335Z,10.30
2022-12-29T03:56:45.159Z,10.20
2022-12-29T03:59:20.754Z,10.20
2022-12-29T04:01:53.802Z,10.20
2022-12-29T04:04:26.988Z,10.20
2022-12-29T04:06:59.874Z,10.20
2022-12-29T04:09:32.888Z,10.20
2022-12-29T04:12:06.210Z,10.20
2022-12-29T04:14:41.458Z,10.20
2022-12-29T04:17:14.367Z,10.30
2022-12-29T04:19:48.270Z,10.30
2022-12-29T04:22:21.026Z,10.30
2022-12-29T04:24:53.835Z,10.30
2022-12-29T04:27:27.468Z,10.30
2022-12-29T04:30:19.027Z,10.30
2022-12-29T04:33:02.252Z,10.30
2022-12-29T04:35:35.664Z,10.30
2022-12-29T04:38:08.389Z,10.30
2022-12-29T04:40:43.057Z,10.40
2022-12-29T04:43:19.472Z,10.40
2022-12-29T04:46:12.491Z,10.40
2022-12-29T04:49:08.783Z,10.40
2022-12-29T04:52:01.889Z,10.40
2022-12-29T04:54:34.845Z,10.40
2022-12-29T04:57:27.282Z,10.40
2022-12-29T05:00:04.406Z,10.30
2022-12-29T05:02:38.368Z,10.20
2022-12-29T05:05:11.615Z,10.10
2022-12-29T05:07:48.459Z,10.00
2022-12-29T05:10:21.477Z,10.00
2022-12-29T05:12:58.853Z,9.90
2022-12-29T05:15:32.184Z,9.90
2022-12-29T05:18:05.046Z,9.90
2022-12-29T05:20:37.855Z,9.80
2022-12-29T05:23:10.604Z,9.80
2022-12-29T05:25:46.106Z,9.80
2022-12-29T05:28:29.079Z,9.80
2022-12-29T05:31:10.862Z,9.70
2022-12-29T05:33:43.713Z,9.80
2022-12-29T05:36:16.445Z,9.70
2022-12-29T05:38:53.833Z,9.70
2022-12-29T05:41:26.737Z,9.70
2022-12-29T05:44:02.160Z,9.70
2022-12-29T05:46:38.272Z,9.70
2022-12-29T05:49:16.923Z,9.70
2022-12-29T05:52:12.476Z,9.70
2022-12-29T05:54:45.289Z,9.70
2022-12-29T05:57:20.893Z,9.70
2022-12-29T06:00:00.992Z,9.60
2022-12-29T06:02:35.104Z,9.60
2022-12-29T06:05:08.343Z,9.60
2022-12-29T06:07:42.745Z,9.60
2022-12-29T06:10:15.703Z,9.60
2022-12-29T06:12:52.340Z,9.60
2022-12-29T06:15:25.544Z,9.60
2022-12-29T06:17:59.644Z,9.60
2022-12-29T06:20:32.405Z,9.60
2022-12-29T06:23:05.255Z,9.60
2022-12-29T06:25:38.335Z,9.60
2022-12-29T06:28:11.673Z,9.70
2022-12-29T06:30:46.353Z,9.70
2022-12-29T06:33:19.105Z,9.70
2022-12-29T06:35:51.863Z,9.70
2022-12-29T06:38:24.573Z,9.70
2022-12-29T06:40:57.383Z,9.70
2022-12-29T06:43:56.563Z,9.70
2022-12-29T06:46:36.251Z,9.80
2022-12-29T06:49:08.961Z,9.80
2022-12-29T06:51:41.805Z,9.80
2022-12-29T06:54:14.591Z,9.80
2022-12-29T06:56:47.289Z,9.80
2022-12-29T06:59:20.074Z,9.80
2022-12-29T07:01:53.094Z,9.70
2022-12-29T07:04:26.309Z,9.70
2022-12-29T07:06:59.059Z,9.70
2022-12-29T07:09:31.676Z,9.70
2022-12-29T07:12:04.969Z,9.70
2022-12-29T07:14:42.963Z,9.70
2022-12-29T07:17:16.410Z,9.70
2022-12-29T07:19:49.294Z,9.70
2022-12-29T07:22:22.116Z,9.60
2022-12-29T07:24:54.790Z,9.60
2022-12-29T07:27:27.591Z,9.60
2022-12-29T07:30:00.499Z,9.60
2022-12-29T07:32:34.798Z,9.60
2022-12-29T07:35:08.427Z,9.50
2022-12-29T07:37:41.124Z,9.50
2022-12-29T07:40:14.030Z,9.50
2022-12-29T07:42:47.129Z,9.50
2022-12-29T07:45:22.349Z,9.50
2022-12-29T07:48:00.155Z,9.40
2022-12-29T07:50:32.864Z,9.40
2022-12-29T07:53:05.573Z,9.50
2022-12-29T07:55:39.668Z,9.40
2022-12-29T07:58:12.314Z,9.40
2022-12-29T08:00:45.122Z,9.40
2022-12-29T08:03:17.827Z,9.40
2022-12-29T08:05:50.678Z,9.40
2022-12-29T08:08:23.373Z,9.40
2022-12-29T08:10:56.505Z,9.40
2022-12-29T08:13:29.147Z,9.30
2022-12-29T08:16:02.054Z,9.30
2022-12-29T08:18:34.887Z,9.30
2022-12-29T08:21:07.629Z,9.30
2022-12-29T08:23:40.300Z,9.30
2022-12-29T08:26:13.013Z,9.30
2022-12-29T08:28:46.314Z,9.30
2022-12-29T08:31:19.099Z,9.30
2022-12-29T08:33:52.426Z,9.20
2022-12-29T08:36:25.227Z,9.20
2022-12-29T08:38:58.128Z,9.30
2022-12-29T08:41:30.896Z,9.30
2022-12-29T08:44:03.695Z,9.30
2022-12-29T08:46:36.494Z,9.30
2022-12-29T08:49:09.288Z,9.30
2022-12-29T08:51:41.919Z,9.30
2022-12-29T08:54:14.828Z,9.30
2022-12-29T08:56:47.713Z,9.40
2022-12-29T08:59:22.688Z,9.40
2022-12-29T09:01:56.449Z,9.40
2022-12-29T09:04:29.422Z,9.40
2022-12-29T09:07:02.216Z,9.40
2022-12-29T09:09:35.030Z,9.50
2022-12-29T09:12:07.885Z,9.50
2022-12-29T09:14:40.773Z,9.50
2022-12-29T09:17:32.348Z,9.60
2022-12-29T09:20:05.988Z,9.50
2022-12-29T09:22:39.126Z,9.60
2022-12-29T09:25:12.803Z,9.60
2022-12-29T09:27:45.567Z,9.60
2022-12-29T09:30:18.460Z,9.60
2022-12-29T09:32:55.151Z,9.70
2022-12-29T09:35:28.376Z,9.70
2022-12-29T09:38:01.099Z,9.70
2022-12-29T09:40:34.862Z,9.70
2022-12-29T09:43:23.715Z,9.70
2022-12-29T09:46:15.363Z,9.80
2022-12-29T09:49:22.138Z,9.70
2022-12-29T09:52:00.289Z,9.70
2022-12-29T09:55:03.882Z,9.80
2022-12-29T09:57:55.096Z,9.80
2022-12-29T10:00:55.154Z,9.90
2022-12-29T10:03:47.611Z,9.90
2022-12-29T10:06:32.484Z,10.00
2022-12-29T10:09:20.746Z,10.00
2022-12-29T10:12:24.566Z,10.10
2022-12-29T10:15:37.056Z,10.10
2022-12-29T10:18:44.495Z,10.10
2022-12-29T10:21:55.098Z,10.10
2022-12-29T10:24:30.325Z,10.20
2022-12-29T10:27:03.406Z,10.20
2022-12-29T10:29:41.049Z,10.20
2022-12-29T10:32:49.428Z,10.20
2022-12-29T10:35:24.850Z,10.20
2022-12-29T10:38:30.785Z,10.20
2022-12-29T10:41:14.739Z,10.20
2022-12-29T10:43:53.622Z,10.20
2022-12-29T10:46:31.758Z,10.20
2022-12-29T10:49:06.627Z,10.20
2022-12-29T10:51:43.676Z,10.20
2022-12-29T10:54:23.838Z,10.20
2022-12-29T10:57:11.905Z,10.20
2022-12-29T10:59:44.665Z,10.20
2022-12-29T11:02:52.704Z,10.20
2022-12-29T11:06:04.241Z,10.20
2022-12-29T11:08:41.860Z,10.20
2022-12-29T11:11:33.748Z,10.20
2022-12-29T11:14:26.701Z,10.20
2022-12-29T11:17:05.157Z,10.20
2022-12-29T11:19:41.143Z,10.20
2022-12-29T11:22:25.799Z,10.20
2022-12-29T11:25:13.163Z,10.20
2022-12-29T11:28:16.865Z,10.30
2022-12-29T11:31:01.920Z,10.30
2022-12-29T11:33:40.326Z,10.30
2022-12-29T11:36:16.915Z,10.30
2022-12-29T11:38:55.492Z,10.30
2022-12-29T11:41:30.786Z,10.30
2022-12-29T11:44:06.697Z,10.40
2022-12-29T11:46:39.631Z,10.40
2022-12-29T11:49:19.768Z,10.40
2022-12-29T11:51:55.947Z,10.40
2022-12-29T11:54:32.849Z,10.40
2022-12-29T11:57:15.801Z,10.40
2022-12-29T11:59:57.119Z,10.40
2022-12-29T12:02:57.678Z,10.40
2022-12-29T12:05:44.547Z,10.40
2022-12-29T12:08:45.388Z,10.50
2022-12-29T12:11:37.270Z,10.50
2022-12-29T12:14:21.511Z,10.50
2022-12-29T12:17:41.397Z,10.50
2022-12-29T12:20:28.577Z,10.50
2022-12-29T12:23:09.357Z,10.50
2022-12-29T12:25:52.800Z,10.50
2022-12-29T12:28:44.887Z,10.50
2022-12-29T12:31:37.940Z,10.50
2022-12-29T12:34:44.279Z,10.50
2022-12-29T12:37:22.885Z,10.60
2022-12-29T12:40:19.687Z,10.60
2022-12-29T12:43:29.592Z,10.60
2022-12-29T12:46:38.826Z,10.60
2022-12-29T12:49:28.705Z,10.60
2022-12-29T12:52:26.245Z,10.60
2022-12-29T12:55:31.596Z,10.60
2022-12-29T12:58:30.278Z,10.60
2022-12-29T13:01:14.957Z,10.70
2022-12-29T13:03:56.720Z,10.70
2022-12-29T13:07:05.128Z,10.70
2022-12-29T13:09:44.445Z,10.70
2022-12-29T13:12:40.202Z,10.70
2022-12-29T13:15:24.204Z,10.70
2022-12-29T13:18:07.993Z,10.70
2022-12-29T13:20:49.799Z,10.90
2022-12-29T13:23:41.234Z,11.10
2022-12-29T13:26:36.094Z,11.20
2022-12-29T13:29:29.995Z,11.10
2022-12-29T13:32:14.660Z,11.00
2022-12-29T13:35:11.733Z,10.90
2022-12-29T13:37:59.793Z,10.80
2022-12-29T13:40:39.960Z,10.80
2022-12-29T13:43:14.922Z,10.80
2022-12-29T13:45:56.994Z,10.80
2022-12-29T13:48:44.629Z,10.70
2022-12-29T13:51:22.633Z,10.70
2022-12-29T13:54:26.106Z,10.70
2022-12-29T13:57:27.901Z,10.80
2022-12-29T14:00:20.204Z,10.70
2022-12-29T14:03:30.945Z,10.70
2022-12-29T14:06:24.547Z,10.70
2022-12-29T14:09:04.694Z,10.60
2022-12-29T14:11:40.443Z,10.50
2022-12-29T14:14:24.478Z,10.40
2022-12-29T14:17:14.942Z,10.30
2022-12-29T14:19:53.544Z,10.20
2022-12-29T14:22:32.954Z,10.10
2022-12-29T14:25:06.265Z,10.00
2022-12-29T14:27:53.729Z,9.90
2022-12-29T14:30:49.936Z,9.90
2022-12-29T14:33:27.274Z,9.90
2022-12-29T14:36:20.538Z,9.80
2022-12-29T14:38:53.372Z,9.70
2022-12-29T14:41:31.278Z,9.80
2022-12-29T14:44:18.792Z,9.70
2022-12-29T14:46:54.566Z,9.70
2022-12-29T14:49:32.244Z,9.70
2022-12-29T14:52:21.988Z,9.70
2022-12-29T14:54:58.635Z,9.70
2022-12-29T14:57:50.774Z,9.60
2022-12-29T15:00:28.361Z,9.60
2022-12-29T15:03:13.501Z,9.60
2022-12-29T15:06:22.926Z,9.60
2022-12-29T15:09:00.386Z,9.50
2022-12-29T15:11:39.060Z,9.50
2022-12-29T15:14:37.089Z,9.50
2022-12-29T15:17:23.485Z,9.40
2022-12-29T15:19:57.895Z,9.40
2022-12-29T15:22:31.528Z,9.30
2022-12-29T15:25:05.107Z,9.30
2022-12-29T15:27:39.025Z,9.30
2022-12-29T15:30:18.012Z,9.30
2022-12-29T15:32:51.174Z,9.20
2022-12-29T15:35:28.088Z,9.20
2022-12-29T15:38:04.243Z,9.20
2022-12-29T15:40:37.102Z,9.10
2022-12-29T15:43:25.889Z,9.10
2022-12-29T15:46:01.257Z,9.00
2022-12-29T15:48:34.290Z,9.00
2022-12-29T15:51:34.638Z,8.90
2022-12-29T15:54:23.846Z,8.90
2022-12-29T15:56:56.611Z,8.90
2022-12-29T15:59:35.374Z,8.90
2022-12-29T16:02:12.719Z,8.80
2022-12-29T16:05:15.661Z,8.80
2022-12-29T16:08:00.529Z,8.80
2022-12-29T16:10:39.587Z,8.70
2022-12-29T16:13:29.707Z,8.60
2022-12-29T16:16:08.965Z,8.50
2022-12-29T16:18:41.786Z,8.50
2022-12-29T16:21:25.887Z,8.50
2022-12-29T16:24:02.975Z,8.40
2022-12-29T16:26:36.601Z,8.40
2022-12-29T16:29:09.436Z,8.40
2022-12-29T16:32:01.508Z,8.40
2022-12-29T16:34:46.190Z,8.40
2022-12-29T16:37:35.035Z,8.40
2022-12-29T16:40:31.165Z,8.40
2022-12-29T16:43:05.254Z,8.40
2022-12-29T16:45:47.013Z,8.40
2022-12-29T16:48:22.471Z,8.40
2022-12-29T16:51:12.981Z,8.40
2022-12-29T16:53:53.170Z,8.40
2022-12-29T16:56:29.708Z,8.40
2022-12-29T16:59:06.237Z,8.40
2022-12-29T17:01:40.125Z,8.40
2022-12-29T17:04:14.651Z,8.30
2022-12-29T17:06:47.561Z,8.30
2022-12-29T17:09:27.705Z,8.30
2022-12-29T17:12:10.761Z,8.30
2022-12-29T17:14:48.944Z,8.30
2022-12-29T17:17:36.844Z,8.30
2022-12-29T17:20:29.490Z,8.30
2022-12-29T17:23:02.637Z,8.30
2022-12-29T17:25:38.016Z,8.30
2022-12-29T17:28:32.178Z,8.30
2022-12-29T17:31:06.992Z,8.30
2022-12-29T17:33:42.604Z,8.30
2022-12-29T17:36:16.804Z,8.30
2022-12-29T17:38:59.876Z,8.30
2022-12-29T17:41:36.649Z,8.30
2022-12-29T17:44:19.069Z,8.30
2022-12-29T17:46:52.021Z,8.30
2022-12-29T17:49:25.187Z,8.30
2022-12-29T17:51:58.182Z,8.30
2022-12-29T17:54:32.020Z,8.30
2022-12-29T17:57:04.934Z,8.30
2022-12-29T17:59:37.644Z,8.30
2022-12-29T18:02:27.126Z,8.30
2022-12-29T18:05:00.146Z,8.30
2022-12-29T18:07:36.066Z,8.30
2022-12-29T18:10:09.959Z,8.30
2022-12-29T18:12:45.421Z,8.30
2022-12-29T18:15:25.179Z,8.30
2022-12-29T18:18:11.861Z,8.30
2022-12-29T18:20:46.143Z,8.30
2022-12-29T18:23:20.558Z,8.30
2022-12-29T18:26:01.049Z,8.20
2022-12-29T18:28:33.868Z,8.20
2022-12-29T18:31:20.139Z,8.20
2022-12-29T18:33:54.522Z,8.20
2022-12-29T18:36:28.867Z,8.10
2022-12-29T18:39:01.590Z,8.10
2022-12-29T18:41:34.547Z,8.10
2022-12-29T18:44:14.577Z,8.10
2022-12-29T18:46:47.790Z,8.00
2022-12-29T18:49:21.637Z,8.00
2022-12-29T18:51:54.644Z,8.00
2022-12-29T18:54:33.952Z,8.00
2022-12-29T18:57:06.895Z,8.00
2022-12-29T18:59:39.606Z,8.00
2022-12-29T19:02:20.234Z,8.00
2022-12-29T19:04:54.982Z,8.00
2022-12-29T19:07:30.667Z,8.00
2022-12-29T19:10:04.215Z,8.00
2022-12-29T19:12:37.016Z,8.00
2022-12-29T19:15:39.796Z,7.90
2022-12-29T19:21:14.205Z,7.90
2022-12-29T19:23:47.763Z,7.90
2022-12-29T19:26:34.189Z,7.80
2022-12-29T19:29:12.284Z,7.80
2022-12-29T19:31:45.688Z,7.80
2022-12-29T19:34:18.658Z,7.80
2022-12-29T19:36:51.615Z,7.80
2022-12-29T19:39:24.499Z,7.70
2022-12-29T19:42:03.567Z,7.70
2022-12-29T19:44:38.166Z,7.70
2022-12-29T19:47:11.176Z,7.70
2022-12-29T19:49:44.137Z,7.60
2022-12-29T19:52:16.937Z,7.60
2022-12-29T19:54:49.985Z,7.60
2022-12-29T20:25:55.526Z,7.50
2022-12-29T20:28:29.560Z,7.60
2022-12-29T20:31:06.474Z,7.60
2022-12-29T20:36:15.887Z,7.60
2022-12-29T20:38:49.335Z,7.70
2022-12-29T20:59:46.496Z,7.60
2022-12-29T21:25:44.284Z,7.40
2022-12-29T21:28:17.313Z,7.40
2022-12-29T21:30:51.051Z,7.40
2022-12-29T21:33:23.852Z,7.40
2022-12-29T21:36:03.161Z,7.30
2022-12-29T22:09:06.239Z,6.90
2022-12-29T22:22:11.975Z,6.80
2022-12-29T22:24:44.724Z,6.90
2022-12-29T22:27:18.839Z,6.90
2022-12-29T22:29:51.581Z,6.90
2022-12-29T22:32:24.307Z,6.80
2022-12-29T22:34:57.006Z,6.80
2022-12-29T22:37:30.304Z,6.80
2022-12-29T22:40:03.925Z,6.80
2022-12-29T22:42:37.543Z,6.80
2022-12-29T22:45:10.688Z,6.80
2022-12-29T22:47:43.430Z,6.70
2022-12-29T22:50:16.502Z,6.70
2022-12-29T22:52:49.327Z,6.70
2022-12-29T22:55:22.116Z,6.70
2022-12-29T22:57:54.889Z,6.70
2022-12-29T23:00:27.709Z,6.70
2022-12-29T23:03:00.641Z,6.70
2022-12-29T23:05:33.461Z,6.70
2022-12-29T23:08:06.176Z,6.60
2022-12-29T23:10:38.843Z,6.60
2022-12-29T23:13:11.554Z,6.60
2022-12-29T23:15:44.877Z,6.60
2022-12-29T23:18:17.995Z,6.50
2022-12-29T23:20:50.746Z,6.50
2022-12-29T23:23:48.847Z,6.50
2022-12-29T23:26:27.879Z,6.60
2022-12-29T23:29:02.749Z,6.60
2022-12-29T23:31:36.200Z,6.60
2022-12-29T23:34:11.071Z,6.60
2022-12-29T23:36:44.412Z,6.60
2022-12-29T23:39:24.215Z,6.60
2022-12-29T23:41:57.970Z,6.60
2022-12-29T23:44:30.757Z,6.60
2022-12-29T23:47:03.540Z,6.50
2022-12-29T23:49:36.533Z,6.50
2022-12-29T23:52:09.286Z,6.50
2022-12-29T23:54:42.053Z,6.50
2022-12-29T23:57:15.125Z,6.50
2022-12-29T23:59:47.888Z,6.50
